Time;durP1;ratioP1;P1;durP2;ratioP2;P2;SDS_P1;SDS_P2;PMS_P1;PMS_P2;Temp;Humidity;BMP_temperature;BMP_pressure;BME280_temperature;BME280_humidity;BME280_pressure;Samples;Min_cycle;Max_cycle;Signal;HPM_P1;HPM_P2
2022/04/04 00:00:53;;;;;;;2.30;2.10;;;-6.40;99.90;;;;;;5083751;28;21072;-62
2022/04/04 00:03:33;;;;;;;3.22;2.92;;;-6.40;99.90;;;;;;5145658;27;20539;-62
2022/04/04 00:06:13;;;;;;;2.28;2.10;;;-6.30;99.90;;;;;;5084723;28;20560;-62
2022/04/04 00:08:53;;;;;;;2.45;2.25;;;-6.30;99.90;;;;;;5105067;27;20567;-62
2022/04/04 00:11:33;;;;;;;2.08;1.90;;;-6.40;99.90;;;;;;5084055;27;20553;-62
2022/04/04 00:14:12;;;;;;;2.45;2.25;;;-6.40;99.90;;;;;;5084215;28;21036;-62
2022/04/04 00:16:52;;;;;;;2.20;2.10;;;-6.50;99.90;;;;;;5084770;28;20555;-62
2022/04/04 00:19:32;;;;;;;2.20;1.92;;;-6.50;99.90;;;;;;5102541;27;20537;-62
2022/04/04 00:22:12;;;;;;;2.30;2.10;;;-6.50;99.90;;;;;;5085156;28;20560;-62
2022/04/04 00:24:52;;;;;;;2.25;2.10;;;-6.30;99.90;;;;;;5084736;27;20581;-62
2022/04/04 00:27:32;;;;;;;2.55;2.33;;;-6.20;99.90;;;;;;5125323;27;20548;-62
2022/04/04 00:30:12;;;;;;;2.58;2.38;;;-6.00;99.90;;;;;;5084244;28;20551;-62
2022/04/04 00:32:51;;;;;;;1.92;1.83;;;-5.90;99.90;;;;;;5084255;27;20549;-62
2022/04/04 00:35:31;;;;;;;2.38;2.20;;;-5.80;99.90;;;;;;5104773;27;21090;-61
2022/04/04 00:38:11;;;;;;;3.22;2.45;;;-5.70;99.90;;;;;;5084730;28;20571;-62
2022/04/04 00:40:51;;;;;;;2.25;2.05;;;-5.60;99.90;;;;;;5083869;28;21037;-62
2022/04/04 00:43:30;;;;;;;2.25;2.05;;;-5.50;99.90;;;;;;5084454;27;20539;-62
2022/04/04 00:46:10;;;;;;;2.40;2.20;;;-5.60;99.90;;;;;;5084928;28;20675;-62
2022/04/04 00:48:50;;;;;;;3.10;2.40;;;-5.80;99.90;;;;;;5085475;27;20572;-62
2022/04/04 00:51:30;;;;;;;2.22;2.10;;;-5.80;99.90;;;;;;5084413;27;20542;-62
2022/04/04 00:54:10;;;;;;;2.53;2.10;;;-6.00;99.90;;;;;;5104359;27;21031;-62
2022/04/04 00:56:50;;;;;;;3.20;2.60;;;-6.10;99.90;;;;;;5084830;27;20543;-62
2022/04/04 00:59:31;;;;;;;2.50;2.30;;;-6.10;99.90;;;;;;5083683;27;20573;-62
2022/04/04 01:02:11;;;;;;;2.58;2.40;;;-6.10;99.90;;;;;;5084967;27;20836;-62
2022/04/04 01:04:51;;;;;;;2.65;2.45;;;-6.10;99.90;;;;;;5083835;27;21332;-62
2022/04/04 01:07:31;;;;;;;2.33;2.13;;;-6.10;99.90;;;;;;5125716;27;20592;-62
2022/04/04 01:10:11;;;;;;;2.58;2.33;;;-6.10;99.90;;;;;;5083941;27;20573;-62
2022/04/04 01:12:55;;;;;;;2.70;2.47;;;-5.90;99.90;;;;;;5084494;27;20569;-62
2022/04/04 01:15:35;;;;;;;2.22;1.98;;;-5.90;99.90;;;;;;5084485;27;21021;-62
2022/04/04 01:18:15;;;;;;;3.13;2.53;;;-5.90;99.90;;;;;;5085062;28;20551;-62
2022/04/04 01:20:54;;;;;;;2.78;2.58;;;-5.80;99.90;;;;;;5082491;27;20545;-62
2022/04/04 01:23:40;;;;;;;3.03;2.45;;;-5.80;99.90;;;;;;5084734;27;20541;-62
2022/04/04 01:26:19;;;;;;;2.47;2.28;;;-6.00;99.90;;;;;;5125958;27;20570;-62
2022/04/04 01:28:59;;;;;;;3.15;2.85;;;-5.90;99.90;;;;;;5146300;27;20571;-62
2022/04/04 01:31:39;;;;;;;3.05;2.85;;;-5.90;99.90;;;;;;5146420;27;20535;-62
2022/04/04 01:34:20;;;;;;;3.28;3.08;;;-5.90;99.90;;;;;;5104696;27;20564;-62
2022/04/04 01:37:00;;;;;;;3.50;3.20;;;-5.80;99.90;;;;;;5125670;27;20594;-62
2022/04/04 01:39:40;;;;;;;2.63;2.20;;;-5.80;99.90;;;;;;5083867;27;20557;-62
2022/04/04 01:42:19;;;;;;;3.60;2.58;;;-5.90;99.90;;;;;;5084793;27;20553;-62
2022/04/04 01:44:59;;;;;;;2.58;2.38;;;-5.80;99.90;;;;;;5084266;27;20572;-63
2022/04/04 01:47:41;;;;;;;2.80;2.55;;;-5.80;99.90;;;;;;5125735;27;21245;-62
2022/04/04 01:50:21;;;;;;;2.78;2.58;;;-5.80;99.90;;;;;;5104085;27;20567;-62
2022/04/04 01:56:03;;;;;;;2.50;2.30;;;-5.80;99.90;;;;;;5145793;27;20589;-62
2022/04/04 01:58:43;;;;;;;2.40;2.30;;;-5.80;99.90;;;;;;5084363;27;21084;-62
2022/04/04 02:01:24;;;;;;;2.10;1.90;;;-5.80;99.90;;;;;;5083961;28;20540;-62
2022/04/04 02:04:04;;;;;;;2.28;2.17;;;-5.80;99.90;;;;;;5083830;27;20995;-62
2022/04/04 02:06:44;;;;;;;3.28;3.00;;;-5.80;99.90;;;;;;5125582;27;20536;-62
2022/04/04 02:09:23;;;;;;;8.90;6.32;;;-5.80;99.90;;;;;;5124482;27;20543;-62
2022/04/04 02:12:04;;;;;;;18.92;12.80;;;-5.70;99.90;;;;;;5084712;27;20594;-62
2022/04/04 02:14:45;;;;;;;34.88;19.30;;;-5.80;99.90;;;;;;5145167;27;20542;-62
2022/04/04 02:17:24;;;;;;;34.42;20.17;;;-5.80;99.90;;;;;;5085044;27;20557;-62
2022/04/04 02:20:05;;;;;;;30.88;17.88;;;-5.80;99.90;;;;;;5081731;27;20550;-62
2022/04/04 02:22:46;;;;;;;20.35;14.60;;;-5.80;99.90;;;;;;5084476;27;20547;-62
2022/04/04 02:25:26;;;;;;;20.85;15.50;;;-5.70;99.90;;;;;;5084233;28;20560;-62
2022/04/04 02:28:06;;;;;;;17.83;13.20;;;-5.80;99.90;;;;;;5105853;27;20829;-62
2022/04/04 02:30:47;;;;;;;9.60;7.68;;;-5.90;99.90;;;;;;5103996;27;20542;-62
2022/04/04 02:33:27;;;;;;;6.15;4.18;;;-5.90;99.90;;;;;;5084573;27;20557;-62
2022/04/04 02:36:08;;;;;;;4.13;3.45;;;-5.80;99.90;;;;;;5084701;27;20573;-62
2022/04/04 02:38:48;;;;;;;3.25;2.60;;;-5.80;99.90;;;;;;5084888;27;21076;-62
2022/04/04 02:41:28;;;;;;;2.88;2.65;;;-5.80;99.90;;;;;;5084095;28;20548;-62
2022/04/04 02:44:08;;;;;;;2.90;2.60;;;-5.70;99.90;;;;;;5083735;27;20569;-62
2022/04/04 02:46:48;;;;;;;2.42;1.95;;;-5.70;99.90;;;;;;5084876;27;20569;-62
2022/04/04 02:49:29;;;;;;;3.20;2.40;;;-5.70;99.90;;;;;;5124800;27;21096;-62
2022/04/04 02:52:09;;;;;;;2.53;2.33;;;-5.70;99.90;;;;;;5084771;27;20565;-62
2022/04/04 02:54:48;;;;;;;2.53;2.35;;;-5.70;99.90;;;;;;5104522;27;20678;-62
2022/04/04 02:57:28;;;;;;;2.22;2.03;;;-5.80;99.90;;;;;;5085024;28;20539;-62
2022/04/04 03:00:10;;;;;;;2.90;2.20;;;-5.90;99.90;;;;;;5104269;27;20654;-62
2022/04/04 03:02:52;;;;;;;2.30;2.10;;;-6.00;99.90;;;;;;5084881;27;20659;-62
2022/04/04 03:05:32;;;;;;;2.00;1.80;;;-6.20;99.90;;;;;;5084916;28;20557;-62
2022/04/04 03:08:12;;;;;;;2.10;1.90;;;-6.30;99.90;;;;;;5085182;27;20566;-62
2022/04/04 03:10:52;;;;;;;2.58;2.35;;;-6.40;99.90;;;;;;5083935;27;20581;-62
2022/04/04 03:13:32;;;;;;;3.30;2.58;;;-6.60;99.90;;;;;;5084250;27;20542;-62
2022/04/04 03:16:12;;;;;;;6.20;4.82;;;-6.80;99.90;;;;;;5085028;28;20550;-62
2022/04/04 03:18:54;;;;;;;5.45;4.95;;;-7.00;99.90;;;;;;5084577;27;20551;-63
2022/04/04 03:21:33;;;;;;;2.80;2.60;;;-7.10;99.90;;;;;;5084909;27;21104;-63
2022/04/04 03:24:13;;;;;;;3.85;3.55;;;-7.20;99.90;;;;;;5084163;28;20664;-62
2022/04/04 03:26:53;;;;;;;3.15;2.95;;;-7.30;99.90;;;;;;5084853;28;20548;-62
2022/04/04 03:29:33;;;;;;;3.30;3.00;;;-7.40;99.90;;;;;;5084331;27;20541;-62
2022/04/04 03:32:12;;;;;;;3.33;2.65;;;-7.30;99.90;;;;;;5085031;27;20573;-61
2022/04/04 03:34:52;;;;;;;2.95;2.75;;;-7.10;99.90;;;;;;5084301;27;21068;-62
2022/04/04 03:37:32;;;;;;;3.03;2.35;;;-7.20;99.90;;;;;;5085135;27;20554;-62
2022/04/04 03:40:13;;;;;;;2.13;1.98;;;-7.20;99.90;;;;;;5083907;27;20569;-62
2022/04/04 03:42:55;;;;;;;2.75;2.55;;;-7.20;99.90;;;;;;5104870;27;20662;-62
2022/04/04 03:45:35;;;;;;;2.72;2.53;;;-7.20;99.90;;;;;;5084404;27;20574;-62
2022/04/04 03:48:15;;;;;;;2.25;2.05;;;-7.00;99.90;;;;;;5146224;27;20885;-62
2022/04/04 03:50:55;;;;;;;2.47;2.22;;;-7.10;99.90;;;;;;5103745;27;21006;-62
2022/04/04 03:53:34;;;;;;;2.97;2.15;;;-7.10;99.90;;;;;;5083905;27;20544;-63
2022/04/04 03:56:14;;;;;;;2.40;2.22;;;-7.10;99.90;;;;;;5165260;27;20556;-62
2022/04/04 03:58:54;;;;;;;2.55;2.35;;;-7.20;99.90;;;;;;5151533;27;20533;-62
2022/04/04 04:01:34;;;;;;;3.20;2.90;;;-7.20;99.90;;;;;;5124915;27;20725;-62
2022/04/04 04:04:13;;;;;;;3.53;3.22;;;-7.30;99.90;;;;;;5083857;27;21020;-62
2022/04/04 04:06:53;;;;;;;2.58;2.00;;;-7.40;99.90;;;;;;5084632;27;20997;-62
2022/04/04 04:09:33;;;;;;;3.38;3.08;;;-7.40;99.90;;;;;;5083250;27;20573;-62
2022/04/04 04:12:15;;;;;;;2.42;2.30;;;-7.50;99.90;;;;;;5125825;27;20966;-62
2022/04/04 04:14:55;;;;;;;5.07;4.60;;;-7.40;99.90;;;;;;5073983;28;20670;-62
2022/04/04 04:17:34;;;;;;;6.55;4.93;;;-7.40;99.90;;;;;;5124286;27;20985;-62
2022/04/04 04:20:20;;;;;;;4.32;3.92;;;-7.50;99.90;;;;;;5122368;27;20788;-62
2022/04/04 04:23:03;;;;;;;4.20;3.90;;;-7.50;99.90;;;;;;5083506;27;20551;-62
2022/04/04 04:25:42;;;;;;;5.65;5.22;;;-7.30;99.90;;;;;;5069798;27;20560;-62
2022/04/04 04:28:22;;;;;;;5.45;5.00;;;-7.00;99.90;;;;;;5105184;27;21202;-62
2022/04/04 04:31:02;;;;;;;5.90;5.25;;;-6.70;99.90;;;;;;5083661;27;20540;-62
2022/04/04 04:33:41;;;;;;;4.15;3.42;;;-6.50;99.90;;;;;;5084134;27;20561;-62
2022/04/04 04:36:21;;;;;;;4.35;4.05;;;-6.30;99.90;;;;;;5085097;27;20564;-62
2022/04/04 04:39:01;;;;;;;3.10;2.80;;;-6.30;99.90;;;;;;5084449;27;20572;-62
2022/04/04 04:41:41;;;;;;;2.97;2.78;;;-6.30;99.90;;;;;;5126158;27;21196;-62
2022/04/04 04:44:20;;;;;;;3.90;3.50;;;-6.40;99.90;;;;;;5083824;27;20955;-62
2022/04/04 04:47:00;;;;;;;3.10;2.90;;;-6.30;99.90;;;;;;5084962;28;20671;-62
2022/04/04 04:49:41;;;;;;;3.28;2.97;;;-6.10;99.90;;;;;;5083735;27;20573;-62
2022/04/04 04:52:20;;;;;;;3.20;3.00;;;-6.10;99.90;;;;;;5125663;27;20898;-62
2022/04/04 04:55:00;;;;;;;3.47;3.17;;;-5.80;99.90;;;;;;5096092;27;20624;-62
2022/04/04 04:57:40;;;;;;;3.70;3.40;;;-5.60;99.90;;;;;;5125483;27;21088;-62
2022/04/04 05:00:23;;;;;;;3.83;3.53;;;-5.30;99.90;;;;;;5083107;27;20561;-62
2022/04/04 05:06:14;;;;;;;6.07;5.57;;;-5.30;99.90;;;;;;5096563;27;20625;-61
2022/04/04 05:08:55;;;;;;;4.13;3.83;;;-5.40;99.90;;;;;;5083791;28;20664;-62
2022/04/04 05:11:34;;;;;;;4.90;4.50;;;-5.30;99.90;;;;;;5124783;27;20536;-62
2022/04/04 05:14:15;;;;;;;5.30;4.90;;;-5.20;99.90;;;;;;5083639;28;20555;-61
2022/04/04 05:16:54;;;;;;;4.28;3.97;;;-5.10;99.90;;;;;;5085021;27;20561;-62
2022/04/04 05:19:33;;;;;;;3.75;2.95;;;-5.00;99.90;;;;;;5101771;27;20599;-62
2022/04/04 05:22:14;;;;;;;4.43;3.05;;;-4.80;99.90;;;;;;5084989;27;20543;-62
2022/04/04 05:24:53;;;;;;;3.75;3.38;;;-4.60;99.90;;;;;;5145944;27;20550;-59
2022/04/04 05:27:33;;;;;;;4.10;3.70;;;-4.40;99.90;;;;;;5078517;28;20592;-61
2022/04/04 05:30:13;;;;;;;3.88;3.58;;;-4.20;99.90;;;;;;5131314;27;20874;-61
2022/04/04 05:32:53;;;;;;;5.22;4.82;;;-4.10;99.90;;;;;;5101240;27;20599;-61
2022/04/04 05:35:46;;;;;;;3.85;3.55;;;-4.00;99.90;;;;;;5081608;27;20547;-61
2022/04/04 05:38:26;;;;;;;3.40;3.13;;;-3.80;99.90;;;;;;5082953;28;20579;-61
2022/04/04 05:41:05;;;;;;;3.17;2.85;;;-3.70;99.90;;;;;;5143590;27;20896;-61
2022/04/04 05:43:47;;;;;;;3.45;3.20;;;-3.70;99.90;;;;;;5123041;27;21201;-61
2022/04/04 05:46:27;;;;;;;2.97;2.78;;;-3.70;99.90;;;;;;5145321;27;20547;-61
2022/04/04 05:49:06;;;;;;;3.10;2.90;;;-3.70;99.90;;;;;;5104582;27;20675;-61
2022/04/04 05:51:46;;;;;;;4.03;3.70;;;-3.70;99.90;;;;;;5084678;28;21025;-61
2022/04/04 05:54:26;;;;;;;5.80;3.78;;;-3.60;99.90;;;;;;5103737;27;21075;-61
2022/04/04 05:57:06;;;;;;;4.20;3.90;;;-3.60;99.90;;;;;;5145962;27;20661;-62
2022/04/04 05:59:46;;;;;;;4.45;4.05;;;-3.40;99.90;;;;;;5103140;27;21180;-62
2022/04/04 06:02:26;;;;;;;4.88;4.57;;;-3.30;99.90;;;;;;5084104;27;20575;-60
2022/04/04 06:05:07;;;;;;;4.03;3.72;;;-3.10;99.90;;;;;;5127619;27;20553;-61
2022/04/04 06:07:47;;;;;;;4.70;3.28;;;-3.00;99.90;;;;;;5105111;27;20557;-61
2022/04/04 06:10:27;;;;;;;4.30;3.92;;;-2.80;99.90;;;;;;5084012;27;20588;-62
2022/04/04 06:13:07;;;;;;;4.28;3.88;;;-2.80;99.90;;;;;;5146290;27;21078;-58
2022/04/04 06:15:47;;;;;;;3.58;3.28;;;-2.70;99.90;;;;;;5084740;28;20566;-59
2022/04/04 06:18:26;;;;;;;4.03;3.70;;;-2.80;99.90;;;;;;5084841;28;20680;-57
2022/04/04 06:21:06;;;;;;;3.78;3.47;;;-2.70;99.90;;;;;;5123595;27;20559;-59
2022/04/04 06:23:46;;;;;;;3.72;3.38;;;-2.60;99.90;;;;;;5083846;27;20569;-58
2022/04/04 06:26:28;;;;;;;4.30;4.00;;;-2.50;99.90;;;;;;5105312;27;21408;-58
2022/04/04 06:29:09;;;;;;;4.00;3.50;;;-2.30;99.90;;;;;;5084636;27;20561;-59
2022/04/04 06:31:50;;;;;;;5.38;4.50;;;-2.30;99.90;;;;;;5105591;27;21058;-58
2022/04/04 06:34:30;;;;;;;4.40;4.03;;;-2.30;99.90;;;;;;5104801;27;20567;-57
2022/04/04 06:37:10;;;;;;;3.85;3.55;;;-2.20;99.90;;;;;;5084910;27;20566;-59
2022/04/04 06:39:50;;;;;;;4.78;4.38;;;-2.20;99.90;;;;;;5083836;27;21030;-58
2022/04/04 06:42:30;;;;;;;3.40;3.10;;;-2.00;99.90;;;;;;5105205;27;20685;-58
2022/04/04 06:45:11;;;;;;;3.58;3.17;;;-2.00;99.90;;;;;;5125268;27;20549;-59
2022/04/04 06:47:51;;;;;;;3.80;3.20;;;-1.80;99.90;;;;;;5105706;27;21042;-60
2022/04/04 06:50:31;;;;;;;3.40;3.20;;;-1.60;99.90;;;;;;5084387;27;21096;-58
2022/04/04 06:53:11;;;;;;;3.53;3.03;;;-1.50;99.90;;;;;;5084726;27;20547;-59
2022/04/04 06:55:50;;;;;;;3.33;3.03;;;-1.40;99.90;;;;;;5145938;27;20551;-59
2022/04/04 06:58:30;;;;;;;3.70;3.40;;;-1.20;99.90;;;;;;5105324;27;20685;-59
2022/04/04 07:01:10;;;;;;;4.70;4.40;;;-1.10;99.90;;;;;;5104139;27;20542;-60
2022/04/04 07:03:50;;;;;;;3.70;3.45;;;-0.90;99.90;;;;;;5125349;27;20536;-59
2022/04/04 07:06:29;;;;;;;4.32;3.70;;;-0.80;99.90;;;;;;5105074;27;20553;-59
2022/04/04 07:09:09;;;;;;;4.05;3.75;;;-0.60;99.90;;;;;;5105022;27;20530;-59
2022/04/04 07:11:51;;;;;;;4.00;3.35;;;-0.40;99.90;;;;;;5084968;27;20547;-59
2022/04/04 07:14:31;;;;;;;4.55;4.15;;;-0.20;99.90;;;;;;5104435;27;21079;-59
2022/04/04 07:17:10;;;;;;;3.97;3.67;;;0.10;99.90;;;;;;5146499;27;20657;-59
2022/04/04 07:19:52;;;;;;;4.63;3.88;;;0.50;99.90;;;;;;5102988;27;20673;-59
2022/04/04 07:22:36;;;;;;;3.95;3.65;;;1.00;99.90;;;;;;5085094;28;21331;-59
2022/04/04 07:25:15;;;;;;;4.75;4.45;;;1.70;99.90;;;;;;5104713;27;20545;-59
2022/04/04 07:27:55;;;;;;;5.20;4.70;;;2.20;99.90;;;;;;5146278;27;20653;-59
2022/04/04 07:30:34;;;;;;;33.90;7.38;;;2.80;99.90;;;;;;5083843;28;20672;-59
2022/04/04 07:33:16;;;;;;;4.78;4.38;;;3.20;99.90;;;;;;5104479;27;20957;-58
2022/04/04 07:35:55;;;;;;;3.95;3.65;;;3.40;99.90;;;;;;5067159;28;20674;-59
2022/04/04 07:38:57;;;;;;;27.00;5.68;;;3.30;99.90;;;;;;5119967;22;20542;31
2022/04/04 07:41:36;;;;;;;3.60;3.40;;;3.00;99.90;;;;;;5083389;27;20555;-58
2022/04/04 07:44:16;;;;;;;3.65;3.35;;;2.80;99.90;;;;;;5102889;27;20542;-59
2022/04/04 07:46:56;;;;;;;4.40;4.00;;;2.60;99.90;;;;;;5144710;27;20673;-58
2022/04/04 07:49:35;;;;;;;6.18;4.00;;;2.40;99.90;;;;;;5124049;27;20579;-59
2022/04/04 07:52:15;;;;;;;3.72;3.42;;;2.40;99.90;;;;;;5125714;27;20570;-61
2022/04/04 07:54:55;;;;;;;3.55;3.17;;;2.50;99.90;;;;;;5108655;27;20534;-60
2022/04/04 07:57:35;;;;;;;3.28;3.08;;;2.50;99.90;;;;;;5084790;27;20551;-62
2022/04/04 08:00:18;;;;;;;4.00;3.70;;;2.70;99.90;;;;;;5126025;27;20552;-58
2022/04/04 08:02:59;;;;;;;3.45;3.17;;;3.10;99.90;;;;;;5101564;27;1318485;-58
2022/04/04 08:05:38;;;;;;;4.43;4.13;;;3.30;99.90;;;;;;5086210;27;20558;-59
2022/04/04 08:08:18;;;;;;;9.82;5.25;;;3.80;99.90;;;;;;5127421;27;20532;-58
2022/04/04 08:10:58;;;;;;;4.57;4.03;;;4.50;99.90;;;;;;5106195;27;20557;-58
2022/04/04 08:13:42;;;;;;;4.15;3.80;;;5.20;99.90;;;;;;5085882;28;20539;-58
2022/04/04 08:16:25;;;;;;;4.50;4.20;;;5.50;99.90;;;;;;5085696;28;20659;-58
2022/04/04 08:19:05;;;;;;;4.57;4.18;;;5.60;99.90;;;;;;5151896;27;20577;-58
2022/04/04 08:21:45;;;;;;;4.38;4.07;;;5.50;99.90;;;;;;5085688;27;20562;-58
2022/04/04 08:24:24;;;;;;;4.63;4.32;;;5.60;99.90;;;;;;5147179;27;20557;-58
2022/04/04 08:27:04;;;;;;;5.18;4.05;;;5.60;99.90;;;;;;5086243;28;20668;-58
2022/04/04 08:29:44;;;;;;;4.00;3.70;;;5.60;99.80;;;;;;5126964;27;20548;-58
2022/04/04 08:32:25;;;;;;;7.32;4.72;;;5.50;99.90;;;;;;5085838;27;20565;-58
2022/04/04 08:35:06;;;;;;;6.18;5.68;;;5.80;99.90;;;;;;5086370;27;20565;-58
2022/04/04 08:37:47;;;;;;;11.77;4.90;;;5.80;99.90;;;;;;5086778;28;20539;-58
2022/04/04 08:40:27;;;;;;;7.78;5.25;;;6.00;99.90;;;;;;5126601;27;21080;-59
2022/04/04 08:43:11;;;;;;;4.50;4.20;;;5.70;99.50;;;;;;5126867;27;20532;-59
2022/04/04 08:45:51;;;;;;;11.30;5.57;;;5.60;99.90;;;;;;5126923;27;20655;-59
2022/04/04 08:48:32;;;;;;;7.68;7.00;;;5.40;99.90;;;;;;5106400;27;20541;-59
2022/04/04 08:51:11;;;;;;;4.45;4.07;;;5.20;99.90;;;;;;5106361;27;20526;-61
2022/04/04 08:53:50;;;;;;;4.68;4.38;;;4.90;99.90;;;;;;5147797;27;20671;-58
2022/04/04 08:56:31;;;;;;;4.30;4.00;;;4.70;99.90;;;;;;5148094;27;20542;-58
2022/04/04 08:59:10;;;;;;;4.70;4.40;;;4.70;99.90;;;;;;5147431;27;20665;-62
2022/04/04 09:01:50;;;;;;;4.40;4.10;;;4.70;99.90;;;;;;5147834;27;20546;-59
2022/04/04 09:04:33;;;;;;;6.57;4.40;;;4.60;99.90;;;;;;5106461;27;20558;-61
2022/04/04 09:07:13;;;;;;;6.32;4.80;;;4.40;99.90;;;;;;5147918;27;20550;-57
2022/04/04 09:09:53;;;;;;;5.72;5.22;;;4.50;99.90;;;;;;5158616;27;21124;-57
2022/04/04 09:12:33;;;;;;;5.85;5.35;;;4.50;99.90;;;;;;5086185;27;20539;-57
2022/04/04 09:15:12;;;;;;;8.45;7.72;;;4.20;99.90;;;;;;5147396;27;20530;-60
2022/04/04 09:17:52;;;;;;;9.75;8.95;;;4.10;99.90;;;;;;5147357;27;20526;-61
2022/04/04 09:20:32;;;;;;;6.00;5.57;;;4.00;99.90;;;;;;5126742;27;20945;-59
2022/04/04 09:23:12;;;;;;;5.13;3.95;;;3.90;99.90;;;;;;5127208;27;20998;-60
2022/04/04 09:25:52;;;;;;;3.95;3.65;;;3.70;99.90;;;;;;5126978;27;20960;-60
2022/04/04 09:28:32;;;;;;;3.65;3.42;;;3.60;99.90;;;;;;5147246;27;20528;-59
2022/04/04 09:31:11;;;;;;;3.50;3.20;;;3.60;99.90;;;;;;5146612;27;20560;-58
2022/04/04 09:33:52;;;;;;;3.75;3.45;;;3.60;99.90;;;;;;5105703;27;20549;-59
2022/04/04 09:36:32;;;;;;;3.97;3.67;;;3.80;99.90;;;;;;5126947;27;21070;-58
2022/04/04 09:39:11;;;;;;;15.00;5.63;;;4.10;99.90;;;;;;5152419;27;20548;-58
2022/04/04 09:41:51;;;;;;;4.00;3.70;;;4.20;99.90;;;;;;5147502;27;20665;-58
2022/04/04 09:44:31;;;;;;;4.97;4.30;;;4.70;99.90;;;;;;5126158;27;20540;-59
2022/04/04 09:47:10;;;;;;;4.10;3.80;;;5.30;97.70;;;;;;5085989;28;20695;-59
2022/04/04 09:49:50;;;;;;;7.45;3.67;;;5.90;97.10;;;;;;5126069;27;21219;-58
2022/04/04 09:52:50;;;;;;;3.95;3.65;;;6.10;91.90;;;;;;5147659;27;20534;-57
2022/04/04 09:55:30;;;;;;;3.95;3.65;;;6.20;91.60;;;;;;5085518;27;20692;-58
2022/04/04 09:58:14;;;;;;;3.50;3.17;;;6.60;89.60;;;;;;5105572;27;20534;-57
2022/04/04 10:00:55;;;;;;;6.95;3.88;;;7.10;85.60;;;;;;5105555;27;20975;-59
2022/04/04 10:03:39;;;;;;;3.80;3.50;;;7.40;82.40;;;;;;5104879;27;20530;-61
2022/04/04 10:06:20;;;;;;;3.58;3.28;;;7.50;77.70;;;;;;5126782;27;21017;-58
2022/04/04 10:09:01;;;;;;;4.05;3.75;;;7.50;76.50;;;;;;5084568;28;20676;-61
2022/04/04 10:11:41;;;;;;;3.88;3.58;;;7.60;77.80;;;;;;5145790;27;20538;-58
2022/04/04 10:14:21;;;;;;;3.88;3.58;;;7.60;72.40;;;;;;5084554;27;20841;-59
2022/04/04 10:17:01;;;;;;;3.63;3.33;;;7.50;73.30;;;;;;5084250;27;20551;-58
2022/04/04 10:19:42;;;;;;;3.25;2.95;;;7.50;76.20;;;;;;5084282;27;20548;-58
2022/04/04 10:22:22;;;;;;;3.25;2.97;;;7.70;73.20;;;;;;5084910;27;21149;-60
2022/04/04 10:25:07;;;;;;;3.67;3.33;;;8.00;69.50;;;;;;5106379;27;20550;-58
2022/04/04 10:27:48;;;;;;;4.18;3.17;;;8.20;67.00;;;;;;5147677;27;20835;-58
2022/04/04 10:30:40;;;;;;;2.70;2.50;;;8.20;66.60;;;;;;5105499;27;20557;-58
2022/04/04 10:33:25;;;;;;;2.88;2.67;;;8.80;69.50;;;;;;5126794;27;20532;-58
2022/04/04 10:36:07;;;;;;;3.75;3.20;;;9.30;64.70;;;;;;5085948;27;20552;-60
2022/04/04 10:38:51;;;;;;;4.07;3.78;;;9.30;58.60;;;;;;5126695;27;20536;-60
2022/04/04 10:41:32;;;;;;;4.22;3.53;;;8.70;60.80;;;;;;5147293;27;20534;-58
2022/04/04 10:44:12;;;;;;;4.13;3.72;;;8.30;64.60;;;;;;5126942;27;20536;-61
2022/04/04 10:46:52;;;;;;;4.90;4.38;;;8.10;66.50;;;;;;5147889;27;20561;-58
2022/04/04 10:49:37;;;;;;;15.55;5.38;;;8.10;65.60;;;;;;5126432;27;20569;-59
2022/04/04 10:52:19;;;;;;;16.65;5.00;;;8.20;63.90;;;;;;5086076;27;20560;-61
2022/04/04 10:55:00;;;;;;;4.05;3.00;;;8.50;63.00;;;;;;5085996;28;21016;-58
2022/04/04 10:57:43;;;;;;;3.13;2.92;;;8.40;62.40;;;;;;5086021;28;20555;-58
2022/04/04 11:00:32;;;;;;;4.25;3.85;;;8.20;61.40;;;;;;5099318;27;20551;-58
2022/04/04 11:03:13;;;;;;;4.82;3.35;;;8.10;59.40;;;;;;5106175;27;20545;-58
2022/04/04 11:09:11;;;;;;;3.97;3.20;;;8.10;59.20;;;;;;5082455;27;20560;-59
2022/04/04 11:11:54;;;;;;;3.03;2.83;;;7.90;59.50;;;;;;5085393;27;20555;-58
2022/04/04 11:14:55;;;;;;;3.65;3.38;;;8.00;62.90;;;;;;5148027;27;20547;-58
2022/04/04 11:17:56;;;;;;;3.25;2.95;;;8.10;59.30;;;;;;5125731;27;20663;-58
2022/04/04 11:20:36;;;;;;;3.97;3.20;;;8.20;59.10;;;;;;5125726;27;20549;-58
2022/04/04 11:23:15;;;;;;;4.55;3.10;;;8.50;57.20;;;;;;5085716;28;20672;-58
2022/04/04 11:25:56;;;;;;;3.25;3.05;;;8.90;59.80;;;;;;5126548;27;20569;-58
2022/04/04 11:28:38;;;;;;;3.33;3.13;;;9.50;58.70;;;;;;5105873;27;20541;-58
2022/04/04 11:31:19;;;;;;;2.85;2.65;;;9.90;55.90;;;;;;5085507;27;20969;-58
2022/04/04 11:34:00;;;;;;;2.35;2.25;;;9.80;51.70;;;;;;5147796;27;20657;-57
2022/04/04 11:36:43;;;;;;;2.78;2.53;;;9.40;50.90;;;;;;5086360;27;20572;-58
2022/04/04 11:39:23;;;;;;;3.20;2.90;;;9.00;52.40;;;;;;5079931;27;20577;-58
2022/04/04 11:42:02;;;;;;;3.22;3.03;;;8.60;54.80;;;;;;5127027;27;21011;-58
2022/04/04 11:44:48;;;;;;;4.20;3.00;;;8.80;54.90;;;;;;5126675;27;21133;-58
2022/04/04 11:47:28;;;;;;;3.50;3.05;;;9.00;56.00;;;;;;5085918;28;21007;-58
2022/04/04 11:50:09;;;;;;;2.80;2.60;;;9.40;52.70;;;;;;5126244;27;21139;-58
2022/04/04 11:52:50;;;;;;;2.70;2.60;;;9.80;53.70;;;;;;5106957;27;20549;-59
2022/04/04 11:55:31;;;;;;;3.25;3.05;;;9.80;51.80;;;;;;5147308;27;20642;-58
2022/04/04 11:58:14;;;;;;;2.72;2.53;;;9.30;51.40;;;;;;5085940;28;20545;-58
2022/04/04 12:01:04;;;;;;;4.30;2.90;;;8.90;51.50;;;;;;5105375;27;20562;-58
2022/04/04 12:03:49;;;;;;;3.10;2.90;;;8.90;54.30;;;;;;5147760;27;20560;-59
2022/04/04 12:06:30;;;;;;;3.33;3.05;;;9.00;55.10;;;;;;5147870;27;20531;-58
2022/04/04 12:09:13;;;;;;;2.45;2.25;;;9.10;52.70;;;;;;5086107;27;20569;-58
2022/04/04 12:12:01;;;;;;;3.20;3.00;;;9.00;51.90;;;;;;5147811;27;20538;-58
2022/04/04 12:14:42;;;;;;;3.40;2.85;;;8.70;53.90;;;;;;5147673;27;20605;-59
2022/04/04 12:17:24;;;;;;;24.85;4.45;;;8.60;54.10;;;;;;5127467;27;20659;-59
2022/04/04 12:20:11;;;;;;;3.95;2.95;;;8.50;53.50;;;;;;5160380;27;20540;-58
2022/04/04 12:25:48;;;;;;;3.67;3.38;;;8.40;53.80;;;;;;5106342;27;20534;-58
2022/04/04 12:28:30;;;;;;;3.28;2.97;;;8.20;53.80;;;;;;5086127;27;20531;-58
2022/04/04 12:31:15;;;;;;;3.45;3.20;;;8.20;54.40;;;;;;5105931;27;20921;-58
2022/04/04 12:34:02;;;;;;;3.78;3.47;;;8.00;56.30;;;;;;5126826;27;20530;-58
2022/04/04 12:36:44;;;;;;;3.08;2.88;;;8.10;56.10;;;;;;5086201;27;20564;-59
2022/04/04 12:39:24;;;;;;;3.28;2.97;;;8.10;57.00;;;;;;5153549;27;21088;-58
2022/04/04 12:42:07;;;;;;;3.65;3.35;;;8.30;54.50;;;;;;5146356;27;20542;-59
2022/04/04 12:44:55;;;;;;;16.20;9.73;;;8.20;54.80;;;;;;5118292;27;20540;-59
2022/04/04 12:47:34;;;;;;;3.38;3.10;;;7.80;52.90;;;;;;5106822;27;21162;-59
2022/04/04 12:50:15;;;;;;;4.57;4.28;;;7.30;56.10;;;;;;5126631;27;20556;-59
2022/04/04 12:53:02;;;;;;;3.67;3.47;;;7.30;63.70;;;;;;5147400;27;20542;-59
2022/04/04 12:55:44;;;;;;;8.65;6.43;;;7.20;64.80;;;;;;5085655;27;20549;-59
2022/04/04 12:58:24;;;;;;;4.18;3.53;;;7.30;62.30;;;;;;5085579;28;20543;-59
2022/04/04 13:01:16;;;;;;;6.15;5.65;;;7.30;60.30;;;;;;5084976;27;20539;-59
2022/04/04 13:03:56;;;;;;;6.45;5.80;;;7.80;60.30;;;;;;5126433;27;20548;-59
2022/04/04 13:06:35;;;;;;;3.90;3.25;;;7.80;58.90;;;;;;5085536;27;20572;-59
2022/04/04 13:09:23;;;;;;;5.20;4.80;;;7.80;59.70;;;;;;5147056;27;21091;-59
2022/04/04 13:12:03;;;;;;;5.65;5.18;;;7.60;60.00;;;;;;5126798;27;21056;-59
2022/04/04 13:14:48;;;;;;;4.85;4.55;;;7.50;58.40;;;;;;5126655;27;20536;-58
2022/04/04 13:17:38;;;;;;;6.05;4.55;;;7.40;59.30;;;;;;5147168;27;20552;-58
2022/04/04 13:20:17;;;;;;;4.07;3.78;;;7.30;60.90;;;;;;5126560;27;20692;-61
2022/04/04 13:22:57;;;;;;;3.83;3.55;;;7.40;61.90;;;;;;5147713;27;20538;-58
2022/04/04 13:25:36;;;;;;;4.57;4.28;;;7.40;59.80;;;;;;5145662;27;20434;-58
2022/04/04 13:28:17;;;;;;;4.80;4.50;;;7.60;59.50;;;;;;5125712;27;20579;-59
2022/04/04 13:30:56;;;;;;;4.30;4.00;;;7.50;56.90;;;;;;5166859;27;20552;-59
2022/04/04 13:33:36;;;;;;;4.55;4.22;;;7.40;61.20;;;;;;5146261;27;21004;-59
2022/04/04 13:36:17;;;;;;;4.82;3.67;;;7.40;59.60;;;;;;5084830;27;20547;-60
2022/04/04 13:38:56;;;;;;;3.80;3.60;;;7.60;60.30;;;;;;5084772;28;20677;-61
2022/04/04 13:41:37;;;;;;;4.20;3.67;;;7.70;60.90;;;;;;5081389;27;20569;-60
2022/04/04 13:44:17;;;;;;;4.15;3.85;;;8.20;62.20;;;;;;5105341;27;21143;-60
2022/04/04 13:46:57;;;;;;;3.90;3.63;;;8.60;55.50;;;;;;5085905;28;20668;-59
2022/04/04 13:49:36;;;;;;;3.53;3.30;;;8.80;55.60;;;;;;5105607;27;21101;-60
2022/04/04 13:52:16;;;;;;;3.40;3.15;;;9.00;57.40;;;;;;5085874;28;20560;-59
2022/04/04 13:54:57;;;;;;;3.72;3.42;;;9.30;53.40;;;;;;5126953;27;21004;-61
2022/04/04 13:57:36;;;;;;;4.38;4.07;;;9.50;52.40;;;;;;5126412;27;20544;-59
2022/04/04 14:00:17;;;;;;;3.22;2.92;;;9.60;51.20;;;;;;5146785;27;20820;-59
2022/04/04 14:02:56;;;;;;;3.90;3.53;;;9.60;50.70;;;;;;5126831;27;20555;-60
2022/04/04 14:05:35;;;;;;;3.60;3.35;;;9.50;50.00;;;;;;5126520;27;20663;-59
2022/04/04 14:08:17;;;;;;;3.78;3.05;;;9.40;50.10;;;;;;5147281;27;21000;-59
2022/04/04 14:10:58;;;;;;;4.10;3.70;;;9.20;50.60;;;;;;5126671;27;20552;-60
2022/04/04 14:13:39;;;;;;;3.42;3.22;;;9.30;51.80;;;;;;5106945;27;21081;-60